Time;durP1;ratioP1;P1;durP2;ratioP2;P2;SDS_P1;SDS_P2;PMS_P1;PMS_P2;Temp;Humidity;BMP_temperature;BMP_pressure;BME280_temperature;BME280_humidity;BME280_pressure;Samples;Min_cycle;Max_cycle;Signal;HPM_P1;HPM_P2
2023/09/28 00:02:22;;;;;;;0.80;0.80;;;;;;;;;;4976247;28;20105;-59
2023/09/28 00:04:49;;;;;;;1.13;0.80;;;;;;;;;;4975967;28;20027;-58
2023/09/28 00:07:16;;;;;;;1.70;0.60;;;;;;;;;;4976143;28;20082;-59
2023/09/28 00:09:43;;;;;;;0.70;0.70;;;;;;;;;;4992339;28;20478;-58
2023/09/28 00:12:09;;;;;;;2.25;1.20;;;;;;;;;;4995737;28;20370;-58
2023/09/28 00:14:36;;;;;;;1.10;0.80;;;;;;;;;;4988498;28;20073;-59
2023/09/28 00:17:03;;;;;;;1.55;0.82;;;;;;;;;;4988791;28;20394;-59
2023/09/28 00:19:30;;;;;;;1.30;0.98;;;;;;;;;;4989677;28;20065;-58
2023/09/28 00:21:56;;;;;;;1.83;0.85;;;;;;;;;;4990114;28;20042;-58
2023/09/28 00:24:23;;;;;;;4.70;0.90;;;;;;;;;;4994150;28;20034;-58
2023/09/28 00:26:51;;;;;;;1.80;0.88;;;;;;;;;;4982448;28;20524;-58
2023/09/28 00:29:18;;;;;;;2.08;1.40;;;;;;;;;;4975752;28;20046;-58
2023/09/28 00:31:44;;;;;;;2.40;1.02;;;;;;;;;;4975713;28;20487;-58
2023/09/28 00:34:11;;;;;;;1.13;0.90;;;;;;;;;;4975228;28;20386;-58
2023/09/28 00:36:38;;;;;;;1.60;1.17;;;;;;;;;;4981986;28;20030;-58
2023/09/28 00:39:05;;;;;;;2.75;1.00;;;;;;;;;;4989833;28;20390;-58
2023/09/28 00:41:32;;;;;;;1.08;0.85;;;;;;;;;;4989731;28;20026;-58
2023/09/28 00:44:00;;;;;;;2.08;1.00;;;;;;;;;;4988462;28;20037;-58
2023/09/28 00:46:30;;;;;;;1.20;0.77;;;;;;;;;;4992520;28;20030;-59
2023/09/28 00:49:03;;;;;;;2.05;1.20;;;;;;;;;;4994320;28;20030;-59
2023/09/28 00:51:31;;;;;;;0.90;0.73;;;;;;;;;;4994291;28;20034;-58
2023/09/28 00:54:00;;;;;;;1.05;0.70;;;;;;;;;;4994481;28;20014;-58
2023/09/28 00:56:28;;;;;;;1.52;0.95;;;;;;;;;;4994613;28;20437;-58
2023/09/28 00:58:56;;;;;;;3.08;1.42;;;;;;;;;;4991593;28;20057;-58
2023/09/28 01:01:27;;;;;;;2.30;1.23;;;;;;;;;;4989664;28;20540;-59
2023/09/28 01:03:55;;;;;;;1.67;0.75;;;;;;;;;;4987699;28;20145;-58
2023/09/28 01:06:24;;;;;;;1.35;1.02;;;;;;;;;;4989643;28;20493;-58
2023/09/28 01:08:52;;;;;;;1.40;0.82;;;;;;;;;;4991461;28;20125;-58
2023/09/28 01:11:20;;;;;;;2.07;1.03;;;;;;;;;;4993951;28;20035;-59
2023/09/28 01:13:48;;;;;;;0.60;0.43;;;;;;;;;;4990586;28;20137;-58
2023/09/28 01:16:15;;;;;;;1.53;1.20;;;;;;;;;;4994086;28;20490;-59
2023/09/28 01:18:42;;;;;;;2.10;1.30;;;;;;;;;;4994194;28;20422;-58
2023/09/28 01:21:10;;;;;;;2.70;1.07;;;;;;;;;;4991998;28;20137;-59
2023/09/28 01:23:37;;;;;;;1.83;1.13;;;;;;;;;;4988376;28;20442;-58
2023/09/28 01:26:04;;;;;;;2.03;1.13;;;;;;;;;;4984609;28;20034;-58
2023/09/28 01:28:30;;;;;;;1.30;1.10;;;;;;;;;;4980954;28;20500;-59
2023/09/28 01:30:57;;;;;;;0.80;0.63;;;;;;;;;;4978006;28;20102;-59
2023/09/28 01:33:24;;;;;;;1.67;1.03;;;;;;;;;;4994009;28;20035;-58
2023/09/28 01:35:50;;;;;;;1.43;0.90;;;;;;;;;;4986436;28;20037;-58
2023/09/28 01:38:23;;;;;;;4.27;1.90;;;;;;;;;;4978189;28;20502;-59
2023/09/28 01:40:50;;;;;;;1.33;0.83;;;;;;;;;;4975405;28;20030;-58
2023/09/28 01:43:17;;;;;;;2.43;1.30;;;;;;;;;;4972864;28;20043;-58
2023/09/28 01:45:44;;;;;;;2.30;0.93;;;;;;;;;;4969904;28;20027;-58
2023/09/28 01:48:11;;;;;;;1.40;0.93;;;;;;;;;;4969961;28;20066;-59
2023/09/28 01:50:37;;;;;;;2.37;1.23;;;;;;;;;;4970857;28;20034;-58
2023/09/28 01:53:04;;;;;;;1.83;1.17;;;;;;;;;;4971788;28;20093;-60
2023/09/28 01:55:31;;;;;;;2.67;1.30;;;;;;;;;;4985616;28;20026;-58
2023/09/28 01:57:57;;;;;;;6.07;2.00;;;;;;;;;;4991598;28;20030;-60
2023/09/28 02:00:25;;;;;;;1.13;0.97;;;;;;;;;;4978226;28;20073;-59
2023/09/28 02:02:53;;;;;;;4.03;1.30;;;;;;;;;;4991583;28;20022;-59
2023/09/28 02:05:21;;;;;;;6.30;1.80;;;;;;;;;;4983669;28;20026;-58
2023/09/28 02:07:48;;;;;;;4.97;1.77;;;;;;;;;;4986494;28;20375;-58
2023/09/28 02:10:15;;;;;;;2.83;1.37;;;;;;;;;;4986495;28;20497;-58
2023/09/28 02:12:43;;;;;;;2.33;1.23;;;;;;;;;;4988184;28;20142;-58
2023/09/28 02:15:10;;;;;;;3.17;1.53;;;;;;;;;;4988106;28;20363;-58
2023/09/28 02:17:40;;;;;;;6.33;1.57;;;;;;;;;;4992688;28;20019;-57
2023/09/28 02:20:09;;;;;;;1.27;0.80;;;;;;;;;;4986873;28;20030;-58
2023/09/28 02:22:46;;;;;;;4.77;1.40;;;;;;;;;;4973261;28;20019;-58
2023/09/28 02:25:17;;;;;;;2.73;1.50;;;;;;;;;;4973666;28;20182;-58
2023/09/28 02:27:45;;;;;;;0.70;0.70;;;;;;;;;;4973542;28;20035;-58
2023/09/28 02:30:14;;;;;;;5.50;1.77;;;;;;;;;;4970988;28;20030;-58
2023/09/28 02:32:42;;;;;;;1.70;1.27;;;;;;;;;;4987956;28;20060;-58
2023/09/28 02:35:10;;;;;;;12.43;1.30;;;;;;;;;;4987623;28;20038;-58
2023/09/28 02:37:36;;;;;;;1.50;1.20;;;;;;;;;;4987338;28;20493;-58
2023/09/28 02:40:09;;;;;;;21.97;2.13;;;;;;;;;;4990237;28;20130;-58
2023/09/28 02:42:36;;;;;;;1.43;1.20;;;;;;;;;;4973115;28;20423;-59
2023/09/28 02:45:11;;;;;;;3.07;1.87;;;;;;;;;;4973322;28;20081;-58
2023/09/28 02:47:38;;;;;;;2.60;1.60;;;;;;;;;;4973272;28;20386;-58
2023/09/28 02:50:08;;;;;;;1.90;1.37;;;;;;;;;;4974311;28;20060;-58
2023/09/28 02:52:35;;;;;;;1.50;1.03;;;;;;;;;;4967882;28;20089;-57
2023/09/28 02:55:06;;;;;;;2.17;1.40;;;;;;;;;;4968313;28;20062;-58
2023/09/28 02:57:33;;;;;;;1.30;0.87;;;;;;;;;;4968036;28;20026;-58
2023/09/28 03:00:00;;;;;;;2.73;1.30;;;;;;;;;;4979414;28;20080;-58
2023/09/28 03:02:27;;;;;;;1.60;1.20;;;;;;;;;;4991484;28;20037;-58
2023/09/28 03:04:54;;;;;;;1.40;1.00;;;;;;;;;;4990442;28;20505;-57
2023/09/28 03:07:21;;;;;;;1.13;0.80;;;;;;;;;;4992600;28;20041;-58
2023/09/28 03:09:47;;;;;;;1.83;1.17;;;;;;;;;;4992596;28;20393;-58
2023/09/28 03:12:14;;;;;;;1.40;0.70;;;;;;;;;;4992264;28;20030;-58
2023/09/28 03:14:41;;;;;;;2.50;1.07;;;;;;;;;;4973455;28;20029;-58
2023/09/28 03:17:08;;;;;;;11.00;1.73;;;;;;;;;;4971979;28;20042;-58
2023/09/28 03:19:35;;;;;;;1.27;0.80;;;;;;;;;;4967973;28;20097;-58
2023/09/28 03:22:02;;;;;;;1.47;1.20;;;;;;;;;;4967953;28;20034;-59
2023/09/28 03:24:28;;;;;;;1.80;1.03;;;;;;;;;;4970799;28;20032;-57
2023/09/28 03:26:55;;;;;;;3.80;1.83;;;;;;;;;;4978984;28;20500;-58
2023/09/28 03:29:22;;;;;;;3.07;1.93;;;;;;;;;;4992366;28;20049;-58
2023/09/28 03:31:48;;;;;;;1.73;1.20;;;;;;;;;;4984878;28;20018;-58
2023/09/28 03:34:15;;;;;;;6.67;1.50;;;;;;;;;;4972913;28;20034;-58
2023/09/28 03:36:42;;;;;;;2.10;1.20;;;;;;;;;;4976783;28;20076;-57
2023/09/28 03:39:10;;;;;;;1.70;1.23;;;;;;;;;;4987157;28;20381;-58
2023/09/28 03:41:37;;;;;;;2.20;1.10;;;;;;;;;;4987272;28;20054;-58
2023/09/28 03:44:04;;;;;;;2.67;1.23;;;;;;;;;;4987297;28;20034;-58
2023/09/28 03:46:30;;;;;;;2.00;1.20;;;;;;;;;;4984260;28;20101;-58
2023/09/28 03:48:58;;;;;;;3.60;1.40;;;;;;;;;;4972686;28;20121;-57
2023/09/28 03:51:24;;;;;;;2.00;1.33;;;;;;;;;;4972470;28;20038;-57
2023/09/28 03:53:51;;;;;;;1.47;1.20;;;;;;;;;;4972707;28;20023;-59
2023/09/28 03:56:18;;;;;;;3.30;1.53;;;;;;;;;;4976869;28;20490;-57
2023/09/28 03:58:45;;;;;;;2.20;1.47;;;;;;;;;;4991808;28;20034;-58
2023/09/28 04:01:11;;;;;;;5.83;1.60;;;;;;;;;;4985710;28;20039;-57
2023/09/28 04:03:38;;;;;;;1.57;1.10;;;;;;;;;;4990126;28;20098;-58
2023/09/28 04:06:05;;;;;;;1.43;1.07;;;;;;;;;;4990494;28;20309;-58
2023/09/28 04:08:31;;;;;;;1.37;0.90;;;;;;;;;;4991192;28;20061;-57
2023/09/28 04:10:58;;;;;;;4.13;1.63;;;;;;;;;;4994709;28;20382;-58
2023/09/28 04:13:24;;;;;;;1.03;0.93;;;;;;;;;;4994062;28;20030;-57
2023/09/28 04:15:51;;;;;;;2.30;1.50;;;;;;;;;;4995401;28;20050;-57
2023/09/28 04:18:18;;;;;;;2.03;1.43;;;;;;;;;;4995346;28;20105;-57
2023/09/28 04:20:44;;;;;;;5.67;3.00;;;;;;;;;;4993007;28;20018;-57
2023/09/28 04:23:12;;;;;;;3.83;2.63;;;;;;;;;;4989880;28;20030;-57
2023/09/28 04:25:39;;;;;;;2.00;1.30;;;;;;;;;;4990078;28;20050;-58
2023/09/28 04:28:06;;;;;;;4.00;2.20;;;;;;;;;;4990019;28;20069;-57
2023/09/28 04:30:34;;;;;;;2.73;1.53;;;;;;;;;;4970592;28;20030;-58
2023/09/28 04:33:01;;;;;;;2.83;1.57;;;;;;;;;;4975641;28;20042;-57
2023/09/28 04:35:27;;;;;;;3.97;1.40;;;;;;;;;;4975679;28;20050;-58
2023/09/28 04:37:54;;;;;;;1.10;1.00;;;;;;;;;;4994071;28;20101;-57
2023/09/28 04:40:24;;;;;;;7.13;2.07;;;;;;;;;;4995050;28;20034;-57
2023/09/28 04:42:51;;;;;;;2.63;1.73;;;;;;;;;;4994728;28;20512;-57
2023/09/28 04:45:19;;;;;;;2.00;1.20;;;;;;;;;;4989770;28;20149;-57
2023/09/28 04:47:46;;;;;;;2.23;1.50;;;;;;;;;;4972657;28;20047;-57
2023/09/28 04:50:13;;;;;;;5.67;1.33;;;;;;;;;;4970170;28;20041;-58
2023/09/28 04:52:43;;;;;;;2.00;1.47;;;;;;;;;;4970129;28;20123;-58
2023/09/28 04:55:10;;;;;;;5.50;1.77;;;;;;;;;;4974485;28;20118;-57
2023/09/28 04:57:36;;;;;;;5.90;2.40;;;;;;;;;;4989064;28;20534;-57
2023/09/28 05:00:06;;;;;;;7.50;3.20;;;;;;;;;;4994227;28;20041;-60
2023/09/28 05:02:33;;;;;;;7.47;3.40;;;;;;;;;;4975015;28;20038;-57
2023/09/28 05:05:00;;;;;;;4.13;2.23;;;;;;;;;;4975108;28;20033;-57
2023/09/28 05:07:26;;;;;;;5.23;2.23;;;;;;;;;;4969872;28;20027;-57
2023/09/28 05:09:53;;;;;;;10.47;2.37;;;;;;;;;;4985874;28;20034;-58
2023/09/28 05:12:19;;;;;;;4.20;2.17;;;;;;;;;;4989182;28;20559;-57
2023/09/28 05:14:46;;;;;;;6.77;2.70;;;;;;;;;;4989075;28;20030;-58
2023/09/28 05:17:14;;;;;;;5.33;3.33;;;;;;;;;;4992401;28;20104;-57
2023/09/28 05:19:41;;;;;;;4.87;3.30;;;;;;;;;;4993352;28;20527;-58
2023/09/28 05:22:10;;;;;;;3.83;2.40;;;;;;;;;;4974913;28;20394;-57
2023/09/28 05:24:36;;;;;;;5.37;2.10;;;;;;;;;;4974348;28;20090;-57
2023/09/28 05:27:03;;;;;;;5.27;3.13;;;;;;;;;;4974729;28;20062;-57
2023/09/28 05:29:30;;;;;;;4.63;3.03;;;;;;;;;;4971057;28;20125;-58
2023/09/28 05:31:57;;;;;;;3.20;2.20;;;;;;;;;;4972679;28;20074;-57
2023/09/28 05:34:24;;;;;;;3.33;1.73;;;;;;;;;;4988700;28;20109;-57
2023/09/28 05:36:51;;;;;;;3.30;2.00;;;;;;;;;;4988813;28;20073;-57
2023/09/28 05:39:18;;;;;;;3.03;2.13;;;;;;;;;;4991077;28;20026;-57
2023/09/28 05:41:45;;;;;;;4.43;1.63;;;;;;;;;;4993820;28;20045;-59
2023/09/28 05:44:11;;;;;;;2.83;2.00;;;;;;;;;;4989258;28;20027;-57
2023/09/28 05:46:39;;;;;;;6.63;1.90;;;;;;;;;;4974238;28;20158;-57
2023/09/28 05:49:06;;;;;;;2.60;1.77;;;;;;;;;;4974268;28;20129;-58
2023/09/28 05:51:33;;;;;;;2.63;1.83;;;;;;;;;;4983778;28;20022;-58
2023/09/28 05:53:59;;;;;;;3.13;1.60;;;;;;;;;;4988307;28;20022;-57
2023/09/28 05:56:26;;;;;;;2.07;1.40;;;;;;;;;;4982731;28;20037;-57
2023/09/28 05:58:53;;;;;;;2.13;1.50;;;;;;;;;;4976838;28;20109;-57
2023/09/28 06:01:21;;;;;;;23.43;2.60;;;;;;;;;;4989617;28;20401;-57
2023/09/28 06:03:47;;;;;;;1.63;1.30;;;;;;;;;;4993078;28;20038;-57
2023/09/28 06:06:18;;;;;;;6.70;2.50;;;;;;;;;;4993372;28;20153;-58
2023/09/28 06:08:50;;;;;;;1.07;0.80;;;;;;;;;;4983218;28;20078;-57
2023/09/28 06:11:17;;;;;;;2.73;2.10;;;;;;;;;;4973769;28;20065;-57
2023/09/28 06:13:44;;;;;;;3.40;1.53;;;;;;;;;;4971840;28;20026;-58
2023/09/28 06:16:13;;;;;;;2.10;1.47;;;;;;;;;;4968847;28;20101;-57
2023/09/28 06:18:40;;;;;;;2.03;1.47;;;;;;;;;;4968052;28;20043;-58
2023/09/28 06:21:07;;;;;;;3.00;2.07;;;;;;;;;;4978804;28;20042;-57
2023/09/28 06:23:34;;;;;;;2.50;1.80;;;;;;;;;;4988162;28;20030;-57
2023/09/28 06:26:01;;;;;;;2.03;1.27;;;;;;;;;;4978342;28;20042;-57
2023/09/28 06:28:28;;;;;;;1.83;1.30;;;;;;;;;;4973479;28;20033;-57
2023/09/28 06:30:55;;;;;;;6.10;0.77;;;;;;;;;;4973475;28;20026;-58
2023/09/28 06:33:23;;;;;;;3.30;1.70;;;;;;;;;;4973619;28;20566;-57
2023/09/28 06:35:50;;;;;;;1.50;1.30;;;;;;;;;;4984177;28;20025;-58
2023/09/28 06:38:16;;;;;;;1.53;1.13;;;;;;;;;;4987504;28;20030;-58
2023/09/28 06:40:53;;;;;;;5.40;1.20;;;;;;;;;;4987722;28;20033;-57
2023/09/28 06:43:20;;;;;;;2.90;1.57;;;;;;;;;;4987592;28;20026;-58
2023/09/28 06:45:47;;;;;;;3.70;1.53;;;;;;;;;;4976920;28;20031;-57
2023/09/28 06:48:14;;;;;;;4.03;2.57;;;;;;;;;;4973285;28;20127;-58
2023/09/28 06:50:40;;;;;;;2.40;1.50;;;;;;;;;;4973196;28;20030;-57
2023/09/28 06:53:07;;;;;;;2.10;1.30;;;;;;;;;;4973170;28;20435;-57
2023/09/28 06:55:35;;;;;;;2.57;1.43;;;;;;;;;;4972857;28;20042;-57
2023/09/28 06:58:06;;;;;;;2.97;1.50;;;;;;;;;;4983678;28;20065;-57
2023/09/28 07:00:33;;;;;;;3.23;1.50;;;;;;;;;;4987348;28;20035;-58
2023/09/28 07:03:00;;;;;;;3.23;1.77;;;;;;;;;;4987803;28;20069;-58
2023/09/28 07:05:27;;;;;;;1.97;1.53;;;;;;;;;;4981248;28;20047;-58
2023/09/28 07:07:54;;;;;;;2.57;1.43;;;;;;;;;;4968245;28;20038;-58
2023/09/28 07:10:21;;;;;;;1.77;1.20;;;;;;;;;;4972381;28;20113;-57
2023/09/28 07:12:48;;;;;;;3.13;1.37;;;;;;;;;;4972873;28;20022;-57
2023/09/28 07:15:14;;;;;;;2.70;1.53;;;;;;;;;;4976695;28;20109;-58
2023/09/28 07:17:41;;;;;;;2.90;1.50;;;;;;;;;;4992418;28;20031;-57
2023/09/28 07:20:08;;;;;;;5.77;1.50;;;;;;;;;;4992495;28;20046;-57
2023/09/28 07:22:34;;;;;;;2.80;1.77;;;;;;;;;;4988067;28;20058;-58
2023/09/28 07:25:01;;;;;;;2.80;1.70;;;;;;;;;;4987163;28;20027;-58
2023/09/28 07:27:31;;;;;;;1.87;1.27;;;;;;;;;;4983040;28;20022;-58
2023/09/28 07:29:59;;;;;;;3.37;1.70;;;;;;;;;;4969840;28;20031;-57
2023/09/28 07:32:29;;;;;;;2.83;1.43;;;;;;;;;;4974682;28;20030;-58
2023/09/28 07:34:56;;;;;;;1.80;1.43;;;;;;;;;;4977335;28;20070;-58
2023/09/28 07:37:24;;;;;;;0.97;0.77;;;;;;;;;;4996173;28;20054;-57
2023/09/28 07:39:51;;;;;;;1.43;1.23;;;;;;;;;;4996128;28;20109;-57
2023/09/28 07:42:19;;;;;;;1.63;1.13;;;;;;;;;;4996195;28;20050;-58
2023/09/28 07:44:47;;;;;;;1.40;1.13;;;;;;;;;;4992430;28;20030;-58
2023/09/28 07:47:14;;;;;;;3.40;2.20;;;;;;;;;;4971436;28;20035;-58
2023/09/28 07:49:41;;;;;;;2.03;1.37;;;;;;;;;;4970850;28;20030;-58
2023/09/28 07:52:11;;;;;;;1.73;1.20;;;;;;;;;;4971108;28;20030;-58
2023/09/28 07:54:38;;;;;;;1.27;1.00;;;;;;;;;;4973932;28;20019;-58
2023/09/28 07:57:05;;;;;;;1.57;0.83;;;;;;;;;;4979698;28;20023;-58
2023/09/28 07:59:35;;;;;;;2.00;1.50;;;;;;;;;;4995355;28;20041;-58
2023/09/28 08:02:02;;;;;;;1.63;1.00;;;;;;;;;;4995644;28;20022;-57
2023/09/28 08:04:30;;;;;;;2.50;1.57;;;;;;;;;;4995737;28;20105;-58
2023/09/28 08:06:57;;;;;;;2.73;1.47;;;;;;;;;;4992411;28;20149;-57
2023/09/28 08:09:24;;;;;;;2.67;1.60;;;;;;;;;;4984802;28;20375;-58
2023/09/28 08:11:51;;;;;;;2.83;1.47;;;;;;;;;;4970718;28;20062;-58
2023/09/28 08:14:18;;;;;;;1.50;1.10;;;;;;;;;;4971143;28;20761;-58
2023/09/28 08:16:45;;;;;;;1.23;1.07;;;;;;;;;;4973045;28;20545;-57
2023/09/28 08:19:12;;;;;;;1.33;0.90;;;;;;;;;;4976817;28;20148;-57
2023/09/28 08:21:40;;;;;;;1.70;1.33;;;;;;;;;;4975993;28;20035;-57
2023/09/28 08:24:07;;;;;;;2.83;1.27;;;;;;;;;;4975392;28;20037;-57
2023/09/28 08:26:34;;;;;;;2.23;1.60;;;;;;;;;;4975443;28;20049;-57
2023/09/28 08:29:04;;;;;;;1.47;1.10;;;;;;;;;;4973477;28;20546;-58
2023/09/28 08:31:32;;;;;;;2.37;1.30;;;;;;;;;;4976671;28;20042;-58
2023/09/28 08:33:59;;;;;;;1.93;1.37;;;;;;;;;;4990120;28;20109;-58
2023/09/28 08:36:27;;;;;;;2.23;1.13;;;;;;;;;;4990154;28;20050;-57
2023/09/28 08:38:56;;;;;;;1.60;1.07;;;;;;;;;;4991162;28;20023;-58
2023/09/28 08:41:34;;;;;;;2.27;1.43;;;;;;;;;;4993917;28;20019;-58
2023/09/28 08:44:05;;;;;;;2.33;1.37;;;;;;;;;;4984323;28;20090;-59
2023/09/28 08:46:40;;;;;;;1.37;1.10;;;;;;;;;;4975610;28;20492;-57
2023/09/28 08:49:14;;;;;;;1.60;1.23;;;;;;;;;;4975428;28;20035;-57
2023/09/28 08:51:41;;;;;;;1.17;0.87;;;;;;;;;;4972645;28;20034;-57
2023/09/28 08:54:09;;;;;;;1.33;0.80;;;;;;;;;;4970187;28;20410;-58
2023/09/28 08:56:36;;;;;;;1.07;0.90;;;;;;;;;;4986621;28;20038;-58
2023/09/28 08:59:04;;;;;;;2.47;1.97;;;;;;;;;;4985258;28;20668;-57
2023/09/28 09:01:31;;;;;;;1.90;1.30;;;;;;;;;;4971367;28;20103;-57
2023/09/28 09:03:58;;;;;;;1.90;1.40;;;;;;;;;;4975080;28;20443;-58
2023/09/28 09:06:29;;;;;;;1.10;0.93;;;;;;;;;;4975160;28;20104;-57
2023/09/28 09:09:00;;;;;;;1.83;1.30;;;;;;;;;;4976807;28;20042;-57
2023/09/28 09:11:28;;;;;;;1.43;0.90;;;;;;;;;;4994162;28;20034;-57
2023/09/28 09:13:55;;;;;;;2.00;1.17;;;;;;;;;;4992703;28;20026;-58
2023/09/28 09:16:22;;;;;;;1.47;1.07;;;;;;;;;;4988926;28;20109;-57
2023/09/28 09:18:49;;;;;;;3.00;1.50;;;;;;;;;;4989196;28;20068;-57
2023/09/28 09:21:16;;;;;;;1.70;1.10;;;;;;;;;;4986911;28;20418;-57
2023/09/28 09:23:43;;;;;;;2.07;1.33;;;;;;;;;;4983684;28;20055;-57
2023/09/28 09:26:19;;;;;;;1.30;1.03;;;;;;;;;;4994159;28;20022;-58
2023/09/28 09:28:46;;;;;;;1.00;0.80;;;;;;;;;;4993981;28;20035;-58
2023/09/28 09:31:14;;;;;;;2.73;1.40;;;;;;;;;;4994117;28;20035;-57
2023/09/28 09:33:42;;;;;;;0.90;0.83;;;;;;;;;;4990213;28;20478;-58
2023/09/28 09:36:09;;;;;;;0.93;0.67;;;;;;;;;;4973012;28;20035;-57
2023/09/28 09:38:35;;;;;;;1.67;1.00;;;;;;;;;;4969194;28;20041;-57
2023/09/28 09:41:06;;;;;;;2.00;1.53;;;;;;;;;;4969536;28;20031;-58
2023/09/28 09:43:35;;;;;;;1.93;1.10;;;;;;;;;;4969239;28;20060;-57
2023/09/28 09:46:05;;;;;;;1.60;1.17;;;;;;;;;;4977334;28;20088;-59
2023/09/28 09:48:40;;;;;;;1.67;0.97;;;;;;;;;;4974286;28;20422;-57
2023/09/28 09:51:10;;;;;;;1.43;1.10;;;;;;;;;;4974368;28;20098;-57
2023/09/28 09:53:40;;;;;;;1.37;1.03;;;;;;;;;;4973035;28;20038;-57
2023/09/28 09:56:08;;;;;;;2.23;1.03;;;;;;;;;;4973798;28;20035;-57
2023/09/28 09:58:39;;;;;;;4.23;1.73;;;;;;;;;;4984685;28;20053;-57
2023/09/28 10:01:16;;;;;;;3.63;0.97;;;;;;;;;;4975114;28;20114;-58
2023/09/28 10:03:53;;;;;;;2.90;1.33;;;;;;;;;;4968775;28;20434;-57
2023/09/28 10:06:21;;;;;;;0.87;0.70;;;;;;;;;;4969917;28;20058;-57
2023/09/28 10:08:49;;;;;;;2.20;1.03;;;;;;;;;;4952215;28;20118;-57
2023/09/28 10:11:16;;;;;;;1.73;1.17;;;;;;;;;;4986987;28;20038;-58
2023/09/28 10:13:43;;;;;;;1.17;0.87;;;;;;;;;;4993328;28;20030;-57
2023/09/28 10:16:14;;;;;;;2.50;1.10;;;;;;;;;;4979381;28;20030;-57
2023/09/28 10:18:43;;;;;;;1.40;0.87;;;;;;;;;;4973807;28;20026;-57
2023/09/28 10:21:13;;;;;;;1.10;0.87;;;;;;;;;;4972044;28;20054;-59
2023/09/28 10:23:40;;;;;;;0.80;0.60;;;;;;;;;;4968010;28;20079;-57
2023/09/28 10:26:14;;;;;;;1.27;0.93;;;;;;;;;;4980592;28;20065;-57
2023/09/28 10:28:59;;;;;;;1.43;0.90;;;;;;;;;;4987800;28;20046;-57
2023/09/28 10:31:29;;;;;;;1.10;0.98;;;;;;;;;;4989611;28;20018;-57
2023/09/28 10:33:59;;;;;;;0.60;0.43;;;;;;;;;;4992968;28;20026;-57
2023/09/28 10:36:28;;;;;;;0.40;0.40;;;;;;;;;;4992703;28;20049;-57
2023/09/28 10:39:17;;;;;;;1.27;0.87;;;;;;;;;;4977864;28;20027;-58
2023/09/28 10:41:49;;;;;;;0.43;0.43;;;;;;;;;;4974318;28;20130;-58
2023/09/28 10:44:17;;;;;;;1.53;1.13;;;;;;;;;;4970232;28;20062;-57
2023/09/28 10:46:47;;;;;;;0.80;0.80;;;;;;;;;;4968208;28;20026;-57
2023/09/28 10:49:23;;;;;;;1.10;1.00;;;;;;;;;;4972638;28;20145;-57
2023/09/28 10:51:51;;;;;;;2.27;0.97;;;;;;;;;;4987521;28;20023;-57
2023/09/28 10:54:18;;;;;;;0.63;0.60;;;;;;;;;;4990052;28;20065;-57
2023/09/28 10:56:48;;;;;;;0.67;0.67;;;;;;;;;;4992721;28;20018;-57
2023/09/28 10:59:15;;;;;;;1.13;0.70;;;;;;;;;;4992256;28;20026;-58
2023/09/28 11:01:42;;;;;;;1.23;0.90;;;;;;;;;;4982931;28;20054;-58
2023/09/28 11:04:10;;;;;;;1.40;0.73;;;;;;;;;;4973859;28;20038;-58
2023/09/28 11:06:36;;;;;;;2.30;0.90;;;;;;;;;;4974690;28;20027;-57
2023/09/28 11:09:03;;;;;;;1.50;1.07;;;;;;;;;;4972045;28;20035;-57
2023/09/28 11:11:30;;;;;;;0.67;0.60;;;;;;;;;;4972040;28;20023;-57
2023/09/28 11:14:00;;;;;;;1.10;0.60;;;;;;;;;;4981724;28;20097;-57
2023/09/28 11:16:27;;;;;;;1.43;0.70;;;;;;;;;;4992832;28;20015;-57
2023/09/28 11:18:56;;;;;;;2.37;1.17;;;;;;;;;;4996370;28;20497;-57
2023/09/28 11:21:23;;;;;;;1.33;1.00;;;;;;;;;;4995387;28;20434;-58
2023/09/28 11:23:53;;;;;;;3.27;1.47;;;;;;;;;;4976940;28;20034;-57
2023/09/28 11:26:21;;;;;;;2.50;1.20;;;;;;;;;;4976913;28;20037;-57
2023/09/28 11:28:48;;;;;;;1.70;1.13;;;;;;;;;;4974660;28;20114;-57
2023/09/28 11:31:15;;;;;;;2.67;1.00;;;;;;;;;;4971712;28;20109;-57
2023/09/28 11:33:44;;;;;;;0.67;0.60;;;;;;;;;;4989368;28;20068;-57
2023/09/28 11:36:15;;;;;;;0.73;0.73;;;;;;;;;;4990925;28;20032;-57
2023/09/28 11:38:42;;;;;;;1.03;0.73;;;;;;;;;;4992271;28;20054;-57
2023/09/28 11:41:08;;;;;;;4.23;1.37;;;;;;;;;;4996109;28;20050;-57
2023/09/28 11:43:54;;;;;;;1.20;0.80;;;;;;;;;;4994050;28;20397;-57
2023/09/28 11:46:24;;;;;;;0.90;0.63;;;;;;;;;;4976396;28;20046;-57
2023/09/28 11:49:07;;;;;;;4.87;1.00;;;;;;;;;;4976383;28;20117;-57
2023/09/28 11:51:34;;;;;;;1.67;1.03;;;;;;;;;;4973761;28;20026;-57
2023/09/28 11:54:01;;;;;;;2.07;1.33;;;;;;;;;;4971328;28;20035;-57
2023/09/28 11:56:28;;;;;;;1.03;0.90;;;;;;;;;;4979474;28;20556;-57
2023/09/28 11:58:55;;;;;;;0.87;0.63;;;;;;;;;;4990270;28;20084;-57
2023/09/28 12:01:22;;;;;;;1.13;0.93;;;;;;;;;;4992320;28;20034;-57
2023/09/28 12:03:49;;;;;;;1.27;1.03;;;;;;;;;;4995733;28;20371;-57
2023/09/28 12:06:19;;;;;;;1.57;0.63;;;;;;;;;;4992748;28;20069;-57
2023/09/28 12:08:45;;;;;;;0.73;0.50;;;;;;;;;;4975929;28;20039;-57
2023/09/28 12:11:12;;;;;;;29.43;2.53;;;;;;;;;;4976120;28;20478;-57
2023/09/28 12:13:39;;;;;;;6.03;1.47;;;;;;;;;;4974192;28;20054;-57
2023/09/28 12:16:06;;;;;;;13.43;1.27;;;;;;;;;;4969537;28;20030;-57
2023/09/28 12:18:33;;;;;;;0.40;0.40;;;;;;;;;;4990372;28;20490;-57
2023/09/28 12:21:00;;;;;;;9.43;0.93;;;;;;;;;;4990278;28;20034;-57
2023/09/28 12:23:27;;;;;;;2.07;1.40;;;;;;;;;;4976257;28;20509;-57
2023/09/28 12:25:57;;;;;;;9.93;1.97;;;;;;;;;;4975817;28;20434;-57
2023/09/28 12:28:23;;;;;;;4.27;2.07;;;;;;;;;;4975534;28;20486;-57
2023/09/28 12:30:51;;;;;;;7.13;2.30;;;;;;;;;;4975752;28;20442;-57
2023/09/28 12:33:18;;;;;;;8.37;2.87;;;;;;;;;;4987957;28;20041;-57
2023/09/28 12:35:45;;;;;;;2.77;1.43;;;;;;;;;;4993815;28;20034;-58
2023/09/28 12:38:12;;;;;;;12.43;3.07;;;;;;;;;;4989879;28;20030;-57
2023/09/28 12:40:38;;;;;;;11.50;3.50;;;;;;;;;;4990026;28;20057;-57
2023/09/28 12:43:05;;;;;;;7.60;3.13;;;;;;;;;;4989875;28;20034;-57
2023/09/28 12:45:33;;;;;;;4.43;2.27;;;;;;;;;;4972554;28;20034;-57
2023/09/28 12:48:03;;;;;;;8.63;2.87;;;;;;;;;;4975156;28;20050;-57
2023/09/28 12:50:30;;;;;;;4.80;2.57;;;;;;;;;;4975258;28;20038;-58
2023/09/28 12:52:57;;;;;;;1.63;1.33;;;;;;;;;;4975326;28;20097;-57
2023/09/28 12:55:24;;;;;;;4.03;1.40;;;;;;;;;;4975249;28;20089;-56
2023/09/28 12:57:51;;;;;;;2.67;1.30;;;;;;;;;;4976055;28;20034;-56
2023/09/28 13:00:18;;;;;;;1.67;1.17;;;;;;;;;;4969954;28;20034;-57
2023/09/28 13:02:46;;;;;;;1.30;0.90;;;;;;;;;;4970109;28;20026;-56
2023/09/28 13:05:16;;;;;;;1.37;0.83;;;;;;;;;;4969973;28;20434;-57
2023/09/28 13:07:43;;;;;;;1.10;0.77;;;;;;;;;;4981549;28;20034;-57
2023/09/28 13:10:15;;;;;;;8.87;1.10;;;;;;;;;;4994246;28;20053;-56
2023/09/28 13:12:44;;;;;;;1.87;1.10;;;;;;;;;;4978921;28;20039;-57
2023/09/28 13:15:13;;;;;;;0.50;0.43;;;;;;;;;;4975093;28;20062;-56
2023/09/28 13:17:41;;;;;;;0.70;0.60;;;;;;;;;;4975142;28;20027;-57
2023/09/28 13:20:10;;;;;;;0.70;0.60;;;;;;;;;;4974728;28;20026;-56
2023/09/28 13:22:37;;;;;;;1.03;0.80;;;;;;;;;;4982792;28;20037;-57
2023/09/28 13:25:09;;;;;;;0.87;0.63;;;;;;;;;;4988984;28;20037;-57
2023/09/28 13:27:37;;;;;;;1.83;0.80;;;;;;;;;;4988674;28;20026;-57
2023/09/28 13:30:08;;;;;;;1.77;0.77;;;;;;;;;;4988481;28;20026;-58
2023/09/28 13:32:37;;;;;;;12.27;0.97;;;;;;;;;;4975416;28;20034;-57
2023/09/28 13:35:06;;;;;;;0.77;0.60;;;;;;;;;;4974649;28;20101;-57
2023/09/28 13:37:32;;;;;;;9.00;1.27;;;;;;;;;;4974120;28;20102;-57
2023/09/28 13:40:00;;;;;;;4.77;1.57;;;;;;;;;;4974421;28;20483;-57
2023/09/28 13:42:27;;;;;;;0.97;0.83;;;;;;;;;;4990776;28;20361;-57
2023/09/28 13:44:54;;;;;;;1.07;0.70;;;;;;;;;;4988651;28;20034;-57
2023/09/28 13:47:20;;;;;;;2.63;1.27;;;;;;;;;;4988632;28;20417;-57
2023/09/28 13:49:49;;;;;;;1.40;1.13;;;;;;;;;;4988382;28;20082;-57
2023/09/28 13:52:16;;;;;;;1.80;1.17;;;;;;;;;;4988114;28;20065;-57
2023/09/28 13:54:43;;;;;;;1.17;0.87;;;;;;;;;;4973143;28;20031;-57
2023/09/28 13:57:09;;;;;;;3.50;1.23;;;;;;;;;;4986794;28;20050;-58
2023/09/28 13:59:37;;;;;;;3.07;1.27;;;;;;;;;;4993751;28;20026;-57
2023/09/28 14:02:06;;;;;;;3.53;1.40;;;;;;;;;;4993381;28;20062;-57
2023/09/28 14:04:33;;;;;;;3.63;1.73;;;;;;;;;;4993392;28;20031;-57
2023/09/28 14:07:00;;;;;;;8.03;2.10;;;;;;;;;;4981745;28;20026;-57
2023/09/28 14:09:31;;;;;;;2.00;1.53;;;;;;;;;;4968810;28;20039;-58
2023/09/28 14:11:57;;;;;;;3.30;2.03;;;;;;;;;;4969240;28;20130;-57
2023/09/28 14:14:24;;;;;;;3.77;2.00;;;;;;;;;;4968659;28;20549;-57
2023/09/28 14:16:51;;;;;;;2.20;1.20;;;;;;;;;;4972218;28;20516;-57
2023/09/28 14:19:18;;;;;;;1.93;1.20;;;;;;;;;;4973687;28;20088;-57
2023/09/28 14:21:45;;;;;;;5.57;1.80;;;;;;;;;;4986591;28;20039;-57
2023/09/28 14:24:12;;;;;;;2.23;1.47;;;;;;;;;;4993124;28;20481;-57
2023/09/28 14:26:39;;;;;;;7.57;2.10;;;;;;;;;;4979622;28;20097;-58
2023/09/28 14:29:06;;;;;;;4.40;1.90;;;;;;;;;;4969367;28;20031;-58
2023/09/28 14:31:36;;;;;;;1.97;1.40;;;;;;;;;;4968492;28;20042;-59
2023/09/28 14:34:03;;;;;;;2.83;1.33;;;;;;;;;;4968412;28;20042;-58
2023/09/28 14:36:30;;;;;;;1.87;1.30;;;;;;;;;;4979284;28;20028;-58
2023/09/28 14:38:57;;;;;;;2.37;1.20;;;;;;;;;;4990000;28;20382;-58
2023/09/28 14:41:25;;;;;;;2.33;1.47;;;;;;;;;;4992999;28;20065;-58
2023/09/28 14:43:52;;;;;;;1.67;1.10;;;;;;;;;;4992711;28;20125;-58
2023/09/28 14:46:19;;;;;;;4.47;1.40;;;;;;;;;;4992438;28;20065;-58
2023/09/28 14:48:47;;;;;;;1.30;0.90;;;;;;;;;;4979083;28;20045;-58